createdAt,value
2017-09-29T00:01:35.263Z,101080.88
2017-09-29T00:04:02.665Z,101087.79
2017-09-29T00:06:30.062Z,101088.34
2017-09-29T00:08:57.467Z,101085.64
2017-09-29T00:11:24.859Z,101092.25
2017-09-29T00:13:52.262Z,101084.22
2017-09-29T00:16:19.662Z,101087.57
2017-09-29T00:18:47.090Z,101085.99
2017-09-29T00:21:14.486Z,101082.72
2017-09-29T00:23:41.897Z,101080.99
2017-09-29T00:26:09.291Z,101077.52
2017-09-29T00:28:36.690Z,101072.28
2017-09-29T00:31:04.088Z,101078.17
2017-09-29T00:33:31.493Z,101072.83
2017-09-29T00:35:58.887Z,101075.59
2017-09-29T00:38:26.290Z,101076.46
2017-09-29T00:40:53.711Z,101082.50
2017-09-29T00:43:21.106Z,101076.04
2017-09-29T00:45:48.503Z,101064.83
2017-09-29T00:48:15.920Z,101050.77
2017-09-29T00:50:43.320Z,101056.62
2017-09-29T00:53:10.723Z,101057.84
2017-09-29T00:55:38.122Z,101054.05
2017-09-29T00:58:05.526Z,101051.73
2017-09-29T01:00:32.940Z,101054.36
2017-09-29T01:03:00.331Z,101049.80
2017-09-29T01:05:27.738Z,101042.00
2017-09-29T01:07:55.135Z,101045.95
2017-09-29T01:10:22.535Z,101046.18
2017-09-29T01:12:49.930Z,101044.13
2017-09-29T01:15:17.351Z,101039.44
2017-09-29T01:17:44.746Z,101043.32
2017-09-29T01:20:12.153Z,101043.32
2017-09-29T01:22:39.571Z,101040.50
2017-09-29T01:25:06.966Z,101040.44
2017-09-29T01:27:34.659Z,101046.53
2017-09-29T01:30:02.055Z,101050.09
2017-09-29T01:32:29.486Z,101046.56
2017-09-29T01:34:56.886Z,101042.48
2017-09-29T01:37:24.283Z,101044.70
2017-09-29T01:39:51.696Z,101040.20
2017-09-29T01:42:19.092Z,101045.53
2017-09-29T01:44:46.503Z,101044.34
2017-09-29T01:47:13.904Z,101043.25
2017-09-29T01:49:41.314Z,101044.34
2017-09-29T01:52:08.719Z,101030.63
2017-09-29T01:54:36.110Z,101025.52
2017-09-29T01:57:03.519Z,101027.48
2017-09-29T01:59:30.919Z,101017.95
2017-09-29T02:01:58.348Z,101021.77
2017-09-29T02:04:25.746Z,101013.29
2017-09-29T02:06:53.149Z,101013.93
2017-09-29T02:09:20.551Z,101014.34
2017-09-29T02:11:47.950Z,101011.80
2017-09-29T02:14:15.375Z,101023.66
2017-09-29T02:16:42.778Z,101016.14
2017-09-29T02:19:10.175Z,101013.67
2017-09-29T02:21:37.578Z,101010.95
2017-09-29T02:24:04.976Z,101009.45
2017-09-29T02:26:32.374Z,101008.03
2017-09-29T02:28:59.770Z,101007.81
2017-09-29T02:31:27.177Z,101007.16
2017-09-29T02:33:54.577Z,100998.56
2017-09-29T02:36:21.961Z,101005.72
2017-09-29T02:38:49.368Z,100995.86
2017-09-29T02:41:16.763Z,101009.41
2017-09-29T02:43:44.168Z,101003.28
2017-09-29T02:46:11.562Z,100997.36
2017-09-29T02:48:38.975Z,100996.13
2017-09-29T02:51:06.375Z,100994.97
2017-09-29T02:53:33.779Z,100994.74
2017-09-29T02:56:01.191Z,100990.79
2017-09-29T02:58:31.259Z,100991.23
2017-09-29T03:01:00.246Z,100993.93
2017-09-29T03:03:30.579Z,100990.69
2017-09-29T03:05:58.447Z,100990.02
2017-09-29T03:08:25.846Z,100993.87
2017-09-29T03:10:53.254Z,100989.59
2017-09-29T03:13:20.659Z,100993.67
2017-09-29T03:15:48.050Z,100995.12
2017-09-29T03:18:15.455Z,100993.70
2017-09-29T03:20:42.854Z,101001.28
2017-09-29T03:23:10.267Z,101009.47
2017-09-29T03:25:37.656Z,101008.76
2017-09-29T03:28:05.063Z,101005.70
2017-09-29T03:30:32.471Z,101013.64
2017-09-29T03:32:59.876Z,101007.70
2017-09-29T03:35:27.281Z,101006.94
2017-09-29T03:37:54.678Z,101003.44
2017-09-29T03:40:22.081Z,101005.36
2017-09-29T03:42:49.476Z,100996.70
2017-09-29T03:45:16.886Z,101002.38
2017-09-29T03:47:44.286Z,101002.19
2017-09-29T03:50:11.947Z,101000.52
2017-09-29T03:52:39.647Z,100989.64
2017-09-29T03:55:09.255Z,100994.06
2017-09-29T03:57:36.900Z,101000.74
2017-09-29T04:00:04.294Z,101003.95
2017-09-29T04:02:31.698Z,100999.17
2017-09-29T04:04:59.093Z,100997.62
2017-09-29T04:07:26.504Z,100988.89
2017-09-29T04:09:53.899Z,100987.13
2017-09-29T04:12:21.295Z,100988.48
2017-09-29T04:14:48.690Z,100994.00
2017-09-29T04:17:16.097Z,101000.52
2017-09-29T04:19:43.482Z,100996.50
2017-09-29T04:22:10.880Z,101000.03
2017-09-29T04:24:38.324Z,100994.28
2017-09-29T04:27:05.696Z,100993.41
2017-09-29T04:29:33.096Z,100991.64
2017-09-29T04:32:00.502Z,100994.05
2017-09-29T04:34:27.894Z,100993.00
2017-09-29T04:36:55.298Z,100991.94
2017-09-29T04:39:22.694Z,100998.09
2017-09-29T04:41:50.090Z,100992.13
2017-09-29T04:44:17.492Z,100994.41
2017-09-29T04:46:44.890Z,100989.14
2017-09-29T04:49:12.330Z,100990.78
2017-09-29T04:51:39.708Z,100989.91
2017-09-29T04:54:07.119Z,100993.45
2017-09-29T04:56:34.519Z,100992.90
2017-09-29T04:59:01.919Z,100995.75
2017-09-29T05:01:29.323Z,100998.97
2017-09-29T05:03:56.721Z,100995.53
2017-09-29T05:06:24.125Z,100992.94
2017-09-29T05:08:51.513Z,100994.25
2017-09-29T05:11:18.914Z,101000.61
2017-09-29T05:13:46.306Z,100998.11
2017-09-29T05:16:13.707Z,100998.75
2017-09-29T05:18:41.106Z,101000.27
2017-09-29T05:21:08.506Z,100997.34
2017-09-29T05:23:35.908Z,101002.48
2017-09-29T05:26:03.747Z,101000.71
2017-09-29T05:28:31.134Z,101000.91
2017-09-29T05:30:58.530Z,101007.19
2017-09-29T05:33:25.923Z,101009.49
2017-09-29T05:35:53.323Z,101019.56
2017-09-29T05:38:20.716Z,101015.12
2017-09-29T05:40:48.123Z,101014.05
2017-09-29T05:43:15.516Z,101017.44
2017-09-29T05:45:42.934Z,101020.52
2017-09-29T05:48:10.337Z,101014.36
2017-09-29T05:50:37.731Z,101022.95
2017-09-29T05:53:05.135Z,101019.20
2017-09-29T05:55:32.539Z,101019.55
2017-09-29T05:57:59.959Z,101019.05
2017-09-29T06:00:27.354Z,101015.40
2017-09-29T06:02:54.762Z,101014.89
2017-09-29T06:05:22.162Z,101016.52
2017-09-29T06:07:49.554Z,101018.39
2017-09-29T06:10:16.956Z,101010.53
2017-09-29T06:12:44.355Z,101016.76
2017-09-29T06:15:11.760Z,101020.60
2017-09-29T06:17:39.151Z,101022.28
2017-09-29T06:20:06.559Z,101020.92
2017-09-29T06:22:33.954Z,101023.37
2017-09-29T06:25:01.355Z,101021.45
2017-09-29T06:27:28.758Z,101018.98
2017-09-29T06:29:56.154Z,101019.15
2017-09-29T06:32:23.554Z,101019.73
2017-09-29T06:34:50.945Z,101019.95
2017-09-29T06:37:18.355Z,101013.87
2017-09-29T06:39:45.751Z,101010.23
2017-09-29T06:42:13.147Z,101009.22
2017-09-29T06:44:40.556Z,101013.74
2017-09-29T06:47:07.955Z,101012.49
2017-09-29T06:49:35.358Z,101016.73
2017-09-29T06:52:02.764Z,101010.31
2017-09-29T06:54:30.170Z,101014.65
2017-09-29T06:56:57.566Z,101014.71
2017-09-29T06:59:24.971Z,101012.85
2017-09-29T07:01:52.375Z,101007.81
2017-09-29T07:04:19.766Z,101019.88
2017-09-29T07:06:47.173Z,101020.75
2017-09-29T07:09:14.570Z,101021.81
2017-09-29T07:11:41.974Z,101026.14
2017-09-29T07:14:09.374Z,101024.47
2017-09-29T07:16:36.779Z,101027.84
2017-09-29T07:19:04.175Z,101023.77
2017-09-29T07:21:31.566Z,101033.37
2017-09-29T07:23:58.967Z,101032.38
2017-09-29T07:26:28.279Z,101035.42
2017-09-29T07:28:57.646Z,101037.00
2017-09-29T07:31:27.019Z,101038.02
2017-09-29T07:33:54.439Z,101029.06
2017-09-29T07:36:21.835Z,101035.58
2017-09-29T07:38:49.243Z,101037.64
2017-09-29T07:41:16.635Z,101035.23
2017-09-29T07:43:44.044Z,101039.15
2017-09-29T07:46:11.443Z,101035.68
2017-09-29T07:48:38.888Z,101034.69
2017-09-29T07:51:06.286Z,101032.50
2017-09-29T07:53:33.688Z,101035.58
2017-09-29T07:56:01.095Z,101033.94
2017-09-29T07:58:28.493Z,101033.81
2017-09-29T08:00:55.891Z,101035.39
2017-09-29T08:03:23.291Z,101028.92
2017-09-29T08:05:50.703Z,101028.31
2017-09-29T08:08:18.099Z,101030.36
2017-09-29T08:10:45.502Z,101027.69
2017-09-29T08:13:12.909Z,101024.84
2017-09-29T08:15:40.315Z,101026.77
2017-09-29T08:18:07.706Z,101018.81
2017-09-29T08:20:35.102Z,101017.32
2017-09-29T08:23:02.522Z,101016.53
2017-09-29T08:25:29.913Z,101016.17
2017-09-29T08:27:57.311Z,101019.08
2017-09-29T08:30:24.710Z,101011.48
2017-09-29T08:32:52.117Z,101011.05
2017-09-29T08:35:19.529Z,101012.86
2017-09-29T08:37:46.918Z,101007.52
2017-09-29T08:40:14.323Z,101010.52
2017-09-29T08:42:41.722Z,101010.98
2017-09-29T08:45:09.142Z,101007.98
2017-09-29T08:47:36.529Z,100994.53
2017-09-29T08:50:03.926Z,100998.09
2017-09-29T08:52:31.326Z,100996.64
2017-09-29T08:54:58.724Z,100993.69
2017-09-29T08:57:26.126Z,100995.45
2017-09-29T08:59:53.524Z,100995.23
2017-09-29T09:02:20.922Z,100993.33
2017-09-29T09:04:48.317Z,100990.41
2017-09-29T09:07:15.727Z,100985.52
2017-09-29T09:09:43.123Z,100985.29
2017-09-29T09:12:10.528Z,100981.67
2017-09-29T09:14:37.928Z,100972.97
2017-09-29T09:17:05.326Z,100976.76
2017-09-29T09:19:32.731Z,100974.81
2017-09-29T09:22:00.127Z,100972.92
2017-09-29T09:24:27.535Z,100965.08
2017-09-29T09:26:54.939Z,100970.54
2017-09-29T09:29:22.361Z,100974.62
2017-09-29T09:31:49.754Z,100969.69
2017-09-29T09:34:17.150Z,100960.31
2017-09-29T09:36:44.558Z,100961.12
2017-09-29T09:39:11.946Z,100959.04
2017-09-29T09:41:39.353Z,100951.68
2017-09-29T09:44:06.755Z,100950.77
2017-09-29T09:46:34.206Z,100942.78
2017-09-29T09:49:01.608Z,100944.31
2017-09-29T09:51:29.003Z,100941.08
2017-09-29T09:53:56.403Z,100945.66
2017-09-29T09:56:23.831Z,100943.97
2017-09-29T09:58:51.250Z,100934.63
2017-09-29T10:01:18.653Z,100939.28
2017-09-29T10:03:46.047Z,100939.39
2017-09-29T10:06:13.446Z,100937.56
2017-09-29T10:08:40.843Z,100936.00
2017-09-29T10:11:08.251Z,100937.28
2017-09-29T10:13:35.647Z,100923.11
2017-09-29T10:16:03.042Z,100922.67
2017-09-29T10:18:30.454Z,100921.16
2017-09-29T10:20:57.851Z,100917.37
2017-09-29T10:23:25.254Z,100920.02
2017-09-29T10:25:52.642Z,100919.80
2017-09-29T10:28:20.232Z,100918.81
2017-09-29T10:30:47.615Z,100904.63
2017-09-29T10:33:15.009Z,100903.81
2017-09-29T10:35:42.406Z,100902.42
2017-09-29T10:38:09.801Z,100899.54
2017-09-29T10:40:37.199Z,100893.42
2017-09-29T10:43:04.594Z,100890.11
2017-09-29T10:45:32.004Z,100884.77
2017-09-29T10:47:59.387Z,100886.12
2017-09-29T10:50:26.779Z,100885.64
2017-09-29T10:52:54.177Z,100879.19
2017-09-29T10:55:21.566Z,100880.76
2017-09-29T10:57:48.954Z,100873.11
2017-09-29T11:00:16.346Z,100865.44
2017-09-29T11:02:43.750Z,100864.84
2017-09-29T11:05:11.150Z,100854.76
2017-09-29T11:07:38.548Z,100851.70
2017-09-29T11:10:05.951Z,100850.56
2017-09-29T11:12:33.338Z,100846.53
2017-09-29T11:15:00.742Z,100845.95
2017-09-29T11:17:28.131Z,100838.70
2017-09-29T11:19:55.541Z,100836.23
2017-09-29T11:22:22.926Z,100850.36
2017-09-29T11:24:50.315Z,100848.10
2017-09-29T11:27:17.706Z,100839.58
2017-09-29T11:29:45.103Z,100838.83
2017-09-29T11:32:12.495Z,100846.10
2017-09-29T11:34:39.890Z,100840.80
2017-09-29T11:37:07.287Z,100833.13
2017-09-29T11:39:34.680Z,100830.78
2017-09-29T11:42:02.067Z,100835.59
2017-09-29T11:44:29.462Z,100828.93
2017-09-29T11:46:56.865Z,100826.87
2017-09-29T11:49:24.271Z,100819.67
2017-09-29T11:51:51.662Z,100818.47
2017-09-29T11:54:19.042Z,100816.56
2017-09-29T11:56:46.447Z,100815.59
2017-09-29T11:59:13.834Z,100810.53
2017-09-29T12:01:41.226Z,100808.23
2017-09-29T12:04:08.622Z,100807.34
2017-09-29T12:06:36.036Z,100806.21
2017-09-29T12:09:03.425Z,100805.06
2017-09-29T12:11:30.826Z,100807.08
2017-09-29T12:13:58.221Z,100797.68
2017-09-29T12:16:25.619Z,100800.48
2017-09-29T12:18:53.014Z,100799.20
2017-09-29T12:21:20.407Z,100796.73
2017-09-29T12:23:47.880Z,100799.64
2017-09-29T12:26:15.283Z,100801.55
2017-09-29T12:28:42.689Z,100795.88
2017-09-29T12:31:10.090Z,100796.53
2017-09-29T12:33:37.486Z,100791.05
2017-09-29T12:36:05.206Z,100792.70
2017-09-29T12:38:32.604Z,100794.75
2017-09-29T12:41:00.795Z,100786.78
2017-09-29T12:43:28.195Z,100784.75
2017-09-29T12:45:55.641Z,100781.80
2017-09-29T12:48:23.041Z,100785.05
2017-09-29T12:50:50.886Z,100774.66
2017-09-29T12:53:18.298Z,100775.78
2017-09-29T12:55:45.694Z,100773.25
2017-09-29T12:58:13.113Z,100774.00
2017-09-29T13:00:40.506Z,100765.53
2017-09-29T13:03:07.906Z,100769.44
2017-09-29T13:05:35.342Z,100768.59
2017-09-29T13:08:02.709Z,100758.55
2017-09-29T13:10:30.118Z,100758.83
2017-09-29T13:12:57.514Z,100750.45
2017-09-29T13:15:24.983Z,100753.34
2017-09-29T13:17:52.359Z,100752.56
2017-09-29T13:20:19.759Z,100750.22
2017-09-29T13:22:47.180Z,100749.08
2017-09-29T13:25:14.576Z,100750.69
2017-09-29T13:27:41.982Z,100752.89
2017-09-29T13:30:09.386Z,100745.13
2017-09-29T13:32:36.788Z,100739.81
2017-09-29T13:35:04.190Z,100741.49
2017-09-29T13:37:31.591Z,100742.53
2017-09-29T13:39:59.018Z,100744.39
2017-09-29T13:42:26.415Z,100737.12
2017-09-29T13:44:53.814Z,100739.39
2017-09-29T13:47:21.214Z,100736.58
2017-09-29T13:49:48.619Z,100728.19
2017-09-29T13:52:16.008Z,100730.67
2017-09-29T13:54:43.402Z,100732.63
2017-09-29T13:57:10.815Z,100730.02
2017-09-29T13:59:38.210Z,100731.00
2017-09-29T14:02:06.637Z,100725.33
2017-09-29T14:04:34.051Z,100726.70
2017-09-29T14:07:01.451Z,100716.66
2017-09-29T14:09:28.886Z,100720.72
2017-09-29T14:11:56.373Z,100722.55
2017-09-29T14:14:23.763Z,100713.17
2017-09-29T14:16:51.169Z,100713.42
2017-09-29T14:19:19.202Z,100712.59
2017-09-29T14:21:46.615Z,100707.50
2017-09-29T14:24:14.017Z,100706.58
2017-09-29T14:26:41.422Z,100706.08
2017-09-29T14:29:09.639Z,100708.67
2017-09-29T14:31:37.048Z,100707.68
2017-09-29T14:34:04.447Z,100699.52
2017-09-29T14:36:31.845Z,100699.97
2017-09-29T14:38:59.246Z,100695.61
2017-09-29T14:41:26.649Z,100695.75
2017-09-29T14:43:55.654Z,100687.95
2017-09-29T14:46:23.053Z,100694.73
2017-09-29T14:48:51.454Z,100688.28
2017-09-29T14:51:18.859Z,100682.92
2017-09-29T14:53:46.266Z,100686.04
2017-09-29T14:56:13.681Z,100680.47
2017-09-29T14:58:41.099Z,100679.62
2017-09-29T15:01:08.526Z,100676.38
2017-09-29T15:03:35.950Z,100678.86
2017-09-29T15:06:03.360Z,100685.75
2017-09-29T15:08:30.754Z,100677.67
2017-09-29T15:10:58.219Z,100676.28
2017-09-29T15:13:25.617Z,100679.44
2017-09-29T15:15:53.866Z,100677.37
2017-09-29T15:18:21.274Z,100665.97
2017-09-29T15:20:48.678Z,100667.20
2017-09-29T15:23:16.081Z,100662.12
2017-09-29T15:25:43.474Z,100666.92
2017-09-29T15:28:10.887Z,100663.84
2017-09-29T15:30:38.282Z,100659.83
2017-09-29T15:33:05.699Z,100654.88
2017-09-29T15:35:33.222Z,100651.96
2017-09-29T15:38:00.614Z,100642.55
2017-09-29T15:40:28.018Z,100645.03
2017-09-29T15:42:55.443Z,100640.06
2017-09-29T15:45:22.842Z,100640.63
2017-09-29T15:47:50.283Z,100637.26
2017-09-29T15:50:17.693Z,100628.07
2017-09-29T15:52:45.092Z,100629.28
2017-09-29T15:55:12.504Z,100630.22
2017-09-29T15:57:39.906Z,100630.22
2017-09-29T16:00:07.308Z,100633.11
2017-09-29T16:02:34.711Z,100624.84
2017-09-29T16:05:02.106Z,100626.48
2017-09-29T16:07:29.535Z,100628.28
2017-09-29T16:09:56.922Z,100637.10
2017-09-29T16:12:24.329Z,100636.43
2017-09-29T16:14:51.722Z,100629.20
2017-09-29T16:17:19.128Z,100640.19
2017-09-29T16:19:46.519Z,100638.59
2017-09-29T16:22:13.910Z,100636.53
2017-09-29T16:24:41.310Z,100640.78
2017-09-29T16:27:08.994Z,100642.01
2017-09-29T16:29:36.395Z,100640.00
2017-09-29T16:32:03.782Z,100642.77
2017-09-29T16:34:31.174Z,100641.59
2017-09-29T16:36:58.567Z,100641.80
2017-09-29T16:39:25.970Z,100640.58
2017-09-29T16:41:53.357Z,100646.44
2017-09-29T16:44:20.798Z,100644.88
2017-09-29T16:46:48.196Z,100644.00
2017-09-29T16:49:15.590Z,100639.45
2017-09-29T16:51:42.978Z,100645.42
2017-09-29T16:54:10.378Z,100641.92
2017-09-29T16:56:37.786Z,100634.98
2017-09-29T16:59:05.171Z,100634.89
2017-09-29T17:01:32.562Z,100629.64
2017-09-29T17:03:59.957Z,100635.94
2017-09-29T17:06:27.354Z,100630.39
2017-09-29T17:08:54.768Z,100626.37
2017-09-29T17:11:22.170Z,100629.14
2017-09-29T17:13:49.570Z,100629.30
2017-09-29T17:16:16.962Z,100632.59
2017-09-29T17:18:44.366Z,100628.67
2017-09-29T17:21:11.771Z,100636.72
2017-09-29T17:23:39.213Z,100635.70
2017-09-29T17:26:06.605Z,100632.72
2017-09-29T17:28:33.989Z,100634.47
2017-09-29T17:31:01.378Z,100633.83
2017-09-29T17:33:28.770Z,100627.33
2017-09-29T17:35:56.180Z,100628.58
2017-09-29T17:38:23.571Z,100630.61
2017-09-29T17:40:50.992Z,100628.72
2017-09-29T17:43:18.381Z,100630.91
2017-09-29T17:45:45.778Z,100631.36
2017-09-29T17:48:13.163Z,100631.89
2017-09-29T17:50:40.555Z,100626.07
2017-09-29T17:53:07.950Z,100629.32
2017-09-29T17:55:35.355Z,100622.67
2017-09-29T17:58:02.755Z,100622.41
2017-09-29T18:00:30.146Z,100624.59
2017-09-29T18:02:57.535Z,100629.20
2017-09-29T18:05:30.846Z,100629.20
2017-09-29T18:07:58.234Z,100632.19
2017-09-29T18:10:25.647Z,100628.94
2017-09-29T18:12:53.034Z,100643.34
2017-09-29T18:15:21.259Z,100639.24
2017-09-29T18:17:48.687Z,100639.69
2017-09-29T18:20:16.095Z,100639.42
2017-09-29T18:22:43.492Z,100632.77
2017-09-29T18:25:10.879Z,100637.41
2017-09-29T18:27:38.286Z,100637.70
2017-09-29T18:30:05.679Z,100638.52
2017-09-29T18:32:33.077Z,100635.67
2017-09-29T18:35:00.479Z,100629.45
2017-09-29T18:37:27.895Z,100629.85
2017-09-29T18:39:55.290Z,100634.03
2017-09-29T18:42:22.755Z,100631.75
2017-09-29T18:47:49.107Z,100629.31
2017-09-29T18:50:16.515Z,100632.98
2017-09-29T18:52:43.911Z,100630.01
2017-09-29T18:55:11.337Z,100634.73
2017-09-29T18:57:38.730Z,100629.98
2017-09-29T19:00:06.126Z,100631.21
2017-09-29T19:02:33.530Z,100632.45
2017-09-29T19:05:00.931Z,100634.34
2017-09-29T19:07:28.334Z,100624.58
2017-09-29T19:09:55.730Z,100635.56
2017-09-29T19:12:23.151Z,100631.52
2017-09-29T19:14:50.546Z,100630.41
2017-09-29T19:17:17.947Z,100630.41
2017-09-29T19:19:45.346Z,100633.27
2017-09-29T19:22:12.738Z,100628.38
2017-09-29T19:24:40.142Z,100630.96
2017-09-29T19:27:07.539Z,100627.16
2017-09-29T19:29:34.950Z,100627.84
2017-09-29T19:32:02.346Z,100625.12
2017-09-29T19:34:29.742Z,100623.76
2017-09-29T19:36:57.150Z,100625.92
2017-09-29T19:39:24.572Z,100628.93
2017-09-29T19:41:51.954Z,100626.89
2017-09-29T19:44:19.354Z,100624.86
2017-09-29T19:46:46.773Z,100622.81
2017-09-29T19:49:14.163Z,100626.23
2017-09-29T19:51:41.558Z,100627.15
2017-09-29T19:54:08.959Z,100629.48
2017-09-29T19:56:36.406Z,100628.27
2017-09-29T19:59:03.811Z,100623.22
2017-09-29T20:01:31.206Z,100625.81
2017-09-29T20:03:58.626Z,100624.73
2017-09-29T20:06:26.035Z,100620.92
2017-09-29T20:08:53.455Z,100623.09
2017-09-29T20:11:20.842Z,100618.23
2017-09-29T20:13:48.234Z,100621.20
2017-09-29T20:16:15.636Z,100626.77
2017-09-29T20:18:43.037Z,100626.63
2017-09-29T20:21:10.471Z,100626.64
2017-09-29T20:23:37.882Z,100630.85
2017-09-29T20:26:05.283Z,100630.17
2017-09-29T20:28:32.682Z,100633.27
2017-09-29T20:31:00.080Z,100627.30
2017-09-29T20:33:27.486Z,100635.16
2017-09-29T20:35:54.877Z,100631.52
2017-09-29T20:38:22.289Z,100633.51
2017-09-29T20:40:49.700Z,100630.40
2017-09-29T20:43:17.094Z,100626.98
2017-09-29T20:45:44.504Z,100633.78
2017-09-29T20:48:11.902Z,100624.84
2017-09-29T20:50:39.311Z,100625.77
2017-09-29T20:53:06.709Z,100623.33
2017-09-29T20:55:34.113Z,100623.47
2017-09-29T20:58:01.510Z,100622.52
2017-09-29T21:00:28.935Z,100620.89
2017-09-29T21:02:56.328Z,100617.77
2017-09-29T21:05:23.731Z,100615.59
2017-09-29T21:07:51.130Z,100616.42
2017-09-29T21:10:18.522Z,100614.09
2017-09-29T21:12:45.933Z,100616.27
2017-09-29T21:15:13.334Z,100611.27
2017-09-29T21:17:40.755Z,100610.98
2017-09-29T21:20:08.159Z,100608.00
2017-09-29T21:22:35.570Z,100606.77
2017-09-29T21:25:02.972Z,100608.83
2017-09-29T21:27:30.367Z,100603.00
2017-09-29T21:29:57.771Z,100604.06
2017-09-29T21:32:25.166Z,100603.81
2017-09-29T21:34:52.579Z,100604.06
2017-09-29T21:37:19.982Z,100600.16
2017-09-29T21:39:47.382Z,100593.78
2017-09-29T21:42:14.788Z,100593.89
2017-09-29T21:44:42.215Z,100589.16
2017-09-29T21:47:09.607Z,100590.36
2017-09-29T21:49:37.006Z,100589.69
2017-09-29T21:52:04.410Z,100586.16
2017-09-29T21:54:31.817Z,100576.69
2017-09-29T21:56:59.222Z,100579.79
2017-09-29T21:59:26.630Z,100570.71
2017-09-29T22:01:54.065Z,100569.48
2017-09-29T22:04:21.465Z,100570.59
2017-09-29T22:06:48.863Z,100570.29
2017-09-29T22:09:16.274Z,100568.65
2017-09-29T22:11:43.671Z,100566.24
2017-09-29T22:14:11.075Z,100561.46
2017-09-29T22:16:38.474Z,100560.38
2017-09-29T22:19:05.887Z,100558.23
2017-09-29T22:21:33.287Z,100555.53
2017-09-29T22:24:00.682Z,100558.08
2017-09-29T22:26:28.077Z,100555.37
2017-09-29T22:28:55.473Z,100549.80
2017-09-29T22:31:22.879Z,100548.61
2017-09-29T22:33:50.274Z,100542.23
2017-09-29T22:36:17.674Z,100538.45
2017-09-29T22:38:45.074Z,100535.47
2017-09-29T22:41:12.485Z,100535.30
2017-09-29T22:43:39.875Z,100528.80
2017-09-29T22:46:07.275Z,100529.47
2017-09-29T22:48:34.676Z,100528.00
2017-09-29T22:51:02.075Z,100529.74
2017-09-29T22:53:29.482Z,100532.98
2017-09-29T22:55:56.883Z,100535.97
2017-09-29T22:58:24.289Z,100536.80
2017-09-29T23:00:51.705Z,100538.41
2017-09-29T23:03:19.090Z,100538.27
2017-09-29T23:05:46.506Z,100543.16
2017-09-29T23:08:13.902Z,100545.57
2017-09-29T23:10:41.294Z,100538.93
2017-09-29T23:13:08.686Z,100536.34
2017-09-29T23:15:36.099Z,100529.86
2017-09-29T23:18:03.498Z,100530.39
2017-09-29T23:20:30.894Z,100528.05
2017-09-29T23:22:58.295Z,100529.81
2017-09-29T23:25:25.696Z,100524.25
2017-09-29T23:27:53.095Z,100523.42
2017-09-29T23:30:20.482Z,100527.75
2017-09-29T23:32:47.896Z,100517.14
2017-09-29T23:35:15.286Z,100510.11
2017-09-29T23:37:42.696Z,100513.08
2017-09-29T23:40:10.104Z,100513.20
2017-09-29T23:42:37.497Z,100509.52
2017-09-29T23:45:04.906Z,100510.73
2017-09-29T23:47:32.311Z,100506.13
2017-09-29T23:49:59.724Z,100510.48
2017-09-29T23:52:27.126Z,100513.20
2017-09-29T23:54:54.518Z,100513.30
2017-09-29T23:57:21.925Z,100517.53
2017-09-29T23:59:49.318Z,100513.20
